Bellevue, Canada
Current Conditions -  °F | °C
As of 3:00 PM on Sunday 25 Jan 2015 (Local Time) from CYYT Reporting Station
Drizzle Drizzle  
Wind Chill: 22°   Ceiling: 1500
Heat Index: 36°   Visibility: 12mi
Dew Point: 32°   Wind: 32mph
Humidity: 87%   Direction: 240°WSW
Pressure: 29.14"   Gusts: 47mph
Location:  47.63°N, 53.75°W
Report Text: CYYT 251800Z 24028G41KT 12SM -DZ OVC015 02/00 A2914 RMK SF8 PRESRR SLP872
Loading
Personal Weather Stations






























Interactive Weather Map New forecast layout! Learn more

10-Day Weather Forecast

Advertisements
Track Severe Weather on mobile